createdAt,value
2015-11-18T00:00:48.635Z,97.5
2015-11-18T00:01:48.592Z,97.4
2015-11-18T00:02:48.548Z,96.5
2015-11-18T00:03:48.488Z,96
2015-11-18T00:04:48.428Z,95.5
2015-11-18T00:05:48.384Z,94.8
2015-11-18T00:06:48.324Z,95
2015-11-18T00:07:48.280Z,94
2015-11-18T00:08:48.065Z,93.6
2015-11-18T00:09:48.176Z,93.8
2015-11-18T00:10:48.117Z,93.8
2015-11-18T00:11:48.073Z,93.6
2015-11-18T00:12:48.029Z,92.8
2015-11-18T00:13:47.969Z,92.4
2015-11-18T00:14:47.909Z,92.3
2015-11-18T00:15:47.865Z,92.6
2015-11-18T00:16:47.818Z,92.7
2015-11-18T00:17:47.758Z,92.8
2015-11-18T00:18:47.714Z,92.7
2015-11-18T00:19:47.654Z,92
2015-11-18T00:20:47.642Z,92.2
2015-11-18T00:21:47.551Z,92.2
2015-11-18T00:22:47.506Z,92
2015-11-18T00:23:47.446Z,91.4
2015-11-18T00:24:47.402Z,90
2015-11-18T00:25:47.342Z,89.1
2015-11-18T00:26:47.298Z,89
2015-11-18T00:27:47.239Z,86.7
2015-11-18T00:28:47.195Z,86.8
2015-11-18T00:29:47.150Z,86
2015-11-18T00:30:47.325Z,86.2
2015-11-18T00:31:47.031Z,86.2
2015-11-18T00:32:46.987Z,86.2
2015-11-18T00:33:46.942Z,85
2015-11-18T00:34:46.883Z,84.7
2015-11-18T00:35:46.823Z,83.2
2015-11-18T00:36:46.779Z,83.5
2015-11-18T00:37:46.720Z,83.4
2015-11-18T00:38:46.675Z,81.9
2015-11-18T00:39:46.631Z,80.5
2015-11-18T00:40:46.556Z,79.9
2015-11-18T00:41:46.512Z,79.2
2015-11-18T00:42:46.467Z,80.3
2015-11-18T00:43:46.408Z,77.9
2015-11-18T00:44:46.364Z,76.3
2015-11-18T00:45:46.304Z,75.3
2015-11-18T00:46:46.259Z,75.6
2015-11-18T00:47:46.217Z,74.3
2015-11-18T00:48:46.156Z,73.8
2015-11-18T00:49:46.112Z,74.2
2015-11-18T00:50:46.052Z,73.6
2015-11-18T00:51:45.993Z,73.4
2015-11-18T00:52:45.948Z,73.8
2015-11-18T00:53:45.889Z,72.5
2015-11-18T00:54:45.844Z,71.6
2015-11-18T00:55:45.813Z,72.2
2015-11-18T00:56:45.738Z,73.3
2015-11-18T00:57:45.678Z,74.1
2015-11-18T00:58:45.634Z,74.6
2015-11-18T00:59:45.589Z,74.6
2015-11-18T01:00:45.545Z,73.7
2015-11-18T01:01:45.486Z,73.4
2015-11-18T01:02:45.426Z,73.5
2015-11-18T01:03:45.382Z,73
2015-11-18T01:04:45.338Z,72.9
2015-11-18T01:05:45.278Z,73.6
2015-11-18T01:06:45.468Z,73.7
2015-11-18T01:07:45.175Z,74.3
2015-11-18T01:08:45.114Z,75.1
2015-11-18T01:09:45.070Z,74.5
2015-11-18T01:10:45.027Z,74.5
2015-11-18T01:11:44.967Z,73.8
2015-11-18T01:12:44.907Z,74.1
2015-11-18T01:13:44.863Z,72.6
2015-11-18T01:14:44.803Z,72.9
2015-11-18T01:15:44.774Z,73.3
2015-11-18T01:16:44.714Z,72.8
2015-11-18T01:17:44.655Z,72.6
2015-11-18T01:18:44.611Z,73.2
2015-11-18T01:19:44.551Z,72.4
2015-11-18T01:20:44.492Z,72.6
2015-11-18T01:21:44.463Z,73
2015-11-18T01:23:02.872Z,72.8
2015-11-18T01:23:44.344Z,71.9
2015-11-18T01:24:44.299Z,71.3
2015-11-18T01:25:44.255Z,71.4
2015-11-18T01:26:44.180Z,71.4
2015-11-18T01:27:44.135Z,71.7
2015-11-18T01:28:44.076Z,70.6
2015-11-18T01:29:44.032Z,71.1
2015-11-18T01:30:43.988Z,71.8
2015-11-18T01:31:43.944Z,71.1
2015-11-18T01:32:43.868Z,71.2
2015-11-18T01:33:43.824Z,71.7
2015-11-18T01:34:43.777Z,71.1
2015-11-18T01:35:43.733Z,70.5
2015-11-18T01:36:43.657Z,69.2
2015-11-18T01:37:43.613Z,68.3
2015-11-18T01:38:43.554Z,68.7
2015-11-18T01:39:43.510Z,69
2015-11-18T01:40:43.466Z,69
2015-11-18T01:41:43.641Z,68.7
2015-11-18T01:42:43.346Z,69.3
2015-11-18T01:43:43.301Z,70.3
2015-11-18T01:44:43.258Z,71.4
2015-11-18T01:45:43.198Z,72.8
2015-11-18T01:46:42.998Z,73.1
2015-11-18T01:47:43.094Z,73.6
2015-11-18T01:48:43.034Z,73.4
2015-11-18T01:49:42.974Z,72.3
2015-11-18T01:50:42.930Z,72.5
2015-11-18T01:51:42.887Z,72.2
2015-11-18T01:52:42.827Z,71.6
2015-11-18T01:53:42.782Z,72.6
2015-11-18T01:54:42.723Z,72.5
2015-11-18T01:55:42.663Z,71.2
2015-11-18T01:56:42.619Z,70.9
2015-11-18T01:57:42.560Z,71.1
2015-11-18T01:58:42.516Z,71.3
2015-11-18T01:59:42.455Z,71
2015-11-18T02:00:42.412Z,71.8
2015-11-18T02:01:42.368Z,72.1
2015-11-18T02:02:42.307Z,72.1
2015-11-18T02:03:42.248Z,72.1
2015-11-18T02:04:42.204Z,72.3
2015-11-18T02:05:42.160Z,72.8
2015-11-18T02:06:42.100Z,72.5
2015-11-18T02:07:42.071Z,71.9
2015-11-18T02:08:41.996Z,71.4
2015-11-18T02:09:41.937Z,71.7
2015-11-18T02:10:41.876Z,72.4
2015-11-18T02:11:41.113Z,72.7
2015-11-18T02:12:41.788Z,73.1
2015-11-18T02:13:41.726Z,73.2
2015-11-18T02:14:40.932Z,72.9
2015-11-18T02:15:41.621Z,72.6
2015-11-18T02:16:41.578Z,72.3
2015-11-18T02:17:41.517Z,72.9
2015-11-18T02:18:41.474Z,73.2
2015-11-18T02:19:41.429Z,72.8
2015-11-18T02:20:41.370Z,73.3
2015-11-18T02:21:41.310Z,73.5
2015-11-18T02:22:41.266Z,73.6
2015-11-18T02:23:41.207Z,74
2015-11-18T02:24:41.162Z,74.4
2015-11-18T02:25:41.103Z,74.7
2015-11-18T02:26:41.292Z,74.5
2015-11-18T02:27:41.015Z,74.6
2015-11-18T02:28:40.204Z,74.2
2015-11-18T02:29:40.895Z,73.7
2015-11-18T02:30:40.992Z,73.8
2015-11-18T02:31:40.790Z,73.4
2015-11-18T02:32:40.732Z,73.4
2015-11-18T02:33:40.688Z,73.6
2015-11-18T02:34:40.642Z,74
2015-11-18T02:35:40.584Z,73.4
2015-11-18T02:36:40.539Z,73.5
2015-11-18T02:37:40.479Z,72
2015-11-18T02:38:53.201Z,73.3
2015-11-18T02:39:40.391Z,73.2
2015-11-18T02:40:40.347Z,72.4
2015-11-18T02:41:40.287Z,72
2015-11-18T02:42:40.243Z,72.3
2015-11-18T02:43:40.184Z,73.1
2015-11-18T02:44:40.156Z,73.2
2015-11-18T02:45:40.079Z,73.7
2015-11-18T02:46:40.036Z,74
2015-11-18T02:47:39.975Z,74.6
2015-11-18T02:48:39.931Z,74.6
2015-11-18T02:49:39.872Z,75
2015-11-18T02:50:39.859Z,75.6
2015-11-18T02:51:39.765Z,76
2015-11-18T02:52:39.720Z,75.6
2015-11-18T02:53:39.677Z,75.7
2015-11-18T02:54:39.601Z,75.7
2015-11-18T02:55:39.558Z,75.6
2015-11-18T02:56:39.498Z,75
2015-11-18T02:57:39.453Z,75
2015-11-18T02:58:39.409Z,74.7
2015-11-18T02:59:38.615Z,74.7
2015-11-18T03:00:39.290Z,74.5
2015-11-18T03:01:38.496Z,75.1
2015-11-18T03:02:39.186Z,74.4
2015-11-18T03:03:39.142Z,75
2015-11-18T03:04:39.098Z,75
2015-11-18T03:05:39.039Z,75.5
2015-11-18T03:06:38.978Z,75.9
2015-11-18T03:07:38.919Z,75.9
2015-11-18T03:08:38.875Z,76.2
2015-11-18T03:09:38.846Z,76.4
2015-11-18T03:10:38.770Z,76.7
2015-11-18T03:11:38.728Z,77.1
2015-11-18T03:12:38.651Z,76.9
2015-11-18T03:13:38.608Z,77.6
2015-11-18T03:14:38.797Z,77.5
2015-11-18T03:15:38.504Z,77.4
2015-11-18T03:16:38.444Z,77.8
2015-11-18T03:17:38.400Z,77.7
2015-11-18T03:18:38.340Z,78.8
2015-11-18T03:19:38.295Z,78.6
2015-11-18T03:20:38.236Z,79.2
2015-11-18T03:21:38.192Z,79
2015-11-18T03:22:38.132Z,78.9
2015-11-18T03:23:38.088Z,79.4
2015-11-18T03:24:38.044Z,79.6
2015-11-18T03:25:37.969Z,79.6
2015-11-18T03:26:37.924Z,79.8
2015-11-18T03:27:37.865Z,79.2
2015-11-18T03:28:37.803Z,79.4
2015-11-18T03:29:37.758Z,79.4
2015-11-18T03:30:37.573Z,79.3
2015-11-18T03:31:37.654Z,78.4
2015-11-18T03:32:37.594Z,78.9
2015-11-18T03:33:37.550Z,78.6
2015-11-18T03:34:37.491Z,77.9
2015-11-18T03:35:37.446Z,78.1
2015-11-18T03:36:37.386Z,77.7
2015-11-18T03:37:37.327Z,77.1
2015-11-18T03:38:37.266Z,77.1
2015-11-18T03:39:37.223Z,77.4
2015-11-18T03:40:37.179Z,77.4
2015-11-18T03:41:37.353Z,77.6
2015-11-18T03:42:37.060Z,78
2015-11-18T03:43:36.999Z,77.8
2015-11-18T03:44:36.971Z,77.9
2015-11-18T03:45:36.912Z,78.2
2015-11-18T03:46:36.883Z,78.3
2015-11-18T03:47:36.792Z,78.5
2015-11-18T03:48:36.733Z,79.5
2015-11-18T03:49:36.688Z,80.1
2015-11-18T03:50:36.644Z,80.8
2015-11-18T03:51:36.585Z,80.1
2015-11-18T03:52:36.525Z,80.1
2015-11-18T03:53:36.480Z,80.5
2015-11-18T03:54:36.421Z,80.9
2015-11-18T03:55:36.377Z,81
2015-11-18T03:56:36.317Z,80.2
2015-11-18T03:57:36.272Z,80.2
2015-11-18T03:58:36.213Z,81
2015-11-18T03:59:36.155Z,81.3
2015-11-18T04:00:36.095Z,81.6
2015-11-18T04:01:36.051Z,81.7
2015-11-18T04:02:35.992Z,82
2015-11-18T04:03:35.948Z,82.4
2015-11-18T04:04:35.887Z,83
2015-11-18T04:05:35.828Z,84.1
2015-11-18T04:06:35.784Z,85.1
2015-11-18T04:07:35.724Z,86.2
2015-11-18T04:08:34.834Z,87
2015-11-18T04:09:35.617Z,88.3
2015-11-18T04:10:35.557Z,88.5
2015-11-18T04:11:35.514Z,88.3
2015-11-18T04:12:35.454Z,88.4
2015-11-18T04:13:35.409Z,89.1
2015-11-18T04:14:35.350Z,88.6
2015-11-18T04:15:35.306Z,88.8
2015-11-18T04:16:35.245Z,88
2015-11-18T04:17:35.187Z,88.2
2015-11-18T04:18:35.142Z,88.4
2015-11-18T04:19:35.098Z,88.1
2015-11-18T04:20:35.039Z,87.8
2015-11-18T04:21:34.994Z,87.5
2015-11-18T04:22:34.934Z,87.7
2015-11-18T04:23:34.875Z,87.8
2015-11-18T04:24:35.050Z,87.4
2015-11-18T04:25:34.770Z,86.7
2015-11-18T04:26:34.726Z,86.6
2015-11-18T04:27:34.667Z,85.7
2015-11-18T04:28:34.607Z,85.8
2015-11-18T04:29:34.798Z,85.4
2015-11-18T04:30:34.519Z,85.7
2015-11-18T04:31:34.459Z,85.4
2015-11-18T04:32:34.414Z,84.9
2015-11-18T04:33:34.355Z,84.5
2015-11-18T04:34:34.295Z,84.5
2015-11-18T04:35:34.251Z,84.8
2015-11-18T04:36:34.426Z,84.4
2015-11-18T04:37:34.148Z,84.4
2015-11-18T04:38:34.089Z,84.4
2015-11-18T04:39:34.028Z,84.6
2015-11-18T04:40:33.969Z,84.6
2015-11-18T04:41:33.925Z,84.4
2015-11-18T04:42:33.895Z,84.1
2015-11-18T04:43:33.821Z,83.8
2015-11-18T04:44:33.761Z,84
2015-11-18T04:45:33.717Z,82.9
2015-11-18T04:46:33.672Z,83.1
2015-11-18T04:47:33.613Z,83.1
2015-11-18T04:48:33.550Z,83
2015-11-18T04:49:33.505Z,82.8
2015-11-18T04:50:33.461Z,82.7
2015-11-18T04:51:33.402Z,82.2
2015-11-18T04:52:33.342Z,82.6
2015-11-18T04:53:33.298Z,83.3
2015-11-18T04:54:33.238Z,82.8
2015-11-18T04:55:33.178Z,82.4
2015-11-18T04:56:33.135Z,82.5
2015-11-18T04:57:33.075Z,82
2015-11-18T04:58:33.030Z,82.2
2015-11-18T04:59:32.972Z,82.5
2015-11-18T05:00:32.911Z,82.9
2015-11-18T05:01:32.883Z,82.9
2015-11-18T05:02:32.808Z,82.9
2015-11-18T05:03:32.764Z,82
2015-11-18T05:04:32.703Z,82.1
2015-11-18T05:05:32.691Z,82.2
2015-11-18T05:06:32.615Z,81.5
2015-11-18T05:07:32.556Z,81.9
2015-11-18T05:08:32.496Z,82
2015-11-18T05:09:32.452Z,81.5
2015-11-18T05:10:32.392Z,81.6
2015-11-18T05:11:32.363Z,81.6
2015-11-18T05:12:32.288Z,81.8
2015-11-18T05:13:32.244Z,81.8
2015-11-18T05:14:32.185Z,81.9
2015-11-18T05:15:32.124Z,81.6
2015-11-18T05:16:32.080Z,82.4
2015-11-18T05:17:32.021Z,82.6
2015-11-18T05:18:31.977Z,82.4
2015-11-18T05:19:31.916Z,81.1
2015-11-18T05:20:31.872Z,80.8
2015-11-18T05:21:31.813Z,81.2
2015-11-18T05:22:31.785Z,81.1
2015-11-18T05:23:31.694Z,81.3
2015-11-18T05:24:31.665Z,82
2015-11-18T05:25:31.590Z,82.3
2015-11-18T05:26:31.546Z,82.1
2015-11-18T05:27:31.501Z,82.1
2015-11-18T05:28:31.438Z,80.1
2015-11-18T05:29:31.379Z,79.7
2015-11-18T05:30:31.554Z,80.3
2015-11-18T05:31:31.275Z,80.4
2015-11-18T05:32:31.231Z,81
2015-11-18T05:33:31.155Z,81.1
2015-11-18T05:34:31.112Z,81.5
2015-11-18T05:35:31.052Z,81.3
2015-11-18T05:36:31.007Z,81.6
2015-11-18T05:37:30.963Z,81.9
2015-11-18T05:38:30.903Z,82.5
2015-11-18T05:39:30.844Z,82.6
2015-11-18T05:40:30.799Z,82.8
2015-11-18T05:41:30.756Z,83.2
2015-11-18T05:42:30.696Z,82.3
2015-11-18T05:43:30.652Z,81.5
2015-11-18T05:44:30.576Z,82
2015-11-18T05:45:30.532Z,80.5
2015-11-18T05:46:30.473Z,80.2
2015-11-18T05:47:30.429Z,79.5
2015-11-18T05:48:30.400Z,79.4
2015-11-18T05:49:30.325Z,78.7
2015-11-18T05:50:30.265Z,78.5
2015-11-18T05:51:30.204Z,78.3
2015-11-18T05:52:30.162Z,77.6
2015-11-18T05:53:30.117Z,77
2015-11-18T05:54:30.057Z,76.7
2015-11-18T05:55:29.997Z,77.4
2015-11-18T05:56:29.968Z,77.5
2015-11-18T05:57:29.893Z,77.7
2015-11-18T05:58:29.849Z,76.9
2015-11-18T05:59:29.790Z,76.8
2015-11-18T06:00:28.980Z,76.7
2015-11-18T06:01:29.686Z,76.3
2015-11-18T06:02:29.626Z,75.7
2015-11-18T06:03:29.567Z,76.3
2015-11-18T06:04:29.538Z,75.2
2015-11-18T06:05:29.478Z,75.4
2015-11-18T06:06:29.403Z,75.3
2015-11-18T06:07:29.359Z,75.1
2015-11-18T06:08:29.314Z,76.1
2015-11-18T06:09:29.251Z,75.2
2015-11-18T06:10:29.208Z,75.4
2015-11-18T06:11:29.148Z,75.5
2015-11-18T06:12:29.088Z,75.7
2015-11-18T06:13:29.045Z,75.8
2015-11-18T06:14:28.984Z,76.1
2015-11-18T06:15:28.925Z,76.5
2015-11-18T06:16:28.881Z,76.1
2015-11-18T06:17:28.821Z,76.4
2015-11-18T06:18:28.777Z,76.3
2015-11-18T06:19:28.748Z,75.9
2015-11-18T06:20:28.673Z,75.8
2015-11-18T06:21:28.613Z,75.8
2015-11-18T06:22:28.569Z,76.4
2015-11-18T06:23:28.509Z,76.5
2015-11-18T06:24:28.465Z,76.9
2015-11-18T06:25:28.625Z,77.6
2015-11-18T06:26:28.345Z,78
2015-11-18T06:27:28.301Z,78.5
2015-11-18T06:28:28.258Z,78.1
2015-11-18T06:29:28.198Z,78.2
2015-11-18T06:30:28.139Z,78.7
2015-11-18T06:31:28.079Z,78.9
2015-11-18T06:32:27.300Z,78.8
2015-11-18T06:33:27.990Z,78.4
2015-11-18T06:34:27.931Z,78.3
2015-11-18T06:35:27.870Z,78.7
2015-11-18T06:36:27.811Z,78.9
2015-11-18T06:37:27.767Z,78.7
2015-11-18T06:38:27.707Z,78.7
2015-11-18T06:39:27.679Z,78.7
2015-11-18T06:40:27.603Z,79.1
2015-11-18T06:41:27.544Z,78.1
2015-11-18T06:42:27.500Z,77.7
2015-11-18T06:43:27.456Z,77.7
2015-11-18T06:44:27.411Z,77.7
2015-11-18T06:45:27.351Z,78.5
2015-11-18T06:46:27.292Z,77.6
2015-11-18T06:47:27.229Z,77.6
2015-11-18T06:48:27.185Z,78
2015-11-18T06:49:27.125Z,78
2015-11-18T06:50:27.081Z,77.7
2015-11-18T06:51:27.022Z,77.9
2015-11-18T06:52:26.961Z,77.7
2015-11-18T06:53:26.917Z,77.7
2015-11-18T06:54:26.873Z,77.6
2015-11-18T06:55:26.814Z,77.7
2015-11-18T06:56:26.753Z,78.1
2015-11-18T06:57:26.694Z,77.9
2015-11-18T06:58:26.650Z,78.2
2015-11-18T06:59:26.591Z,78.2
2015-11-18T07:00:26.547Z,78.9
2015-11-18T07:01:26.486Z,79.2
2015-11-18T07:02:26.442Z,78.8
2015-11-18T07:03:26.383Z,78.8
2015-11-18T07:04:26.322Z,79.3
2015-11-18T07:05:26.278Z,80.4
2015-11-18T07:06:26.219Z,80.7
2015-11-18T07:07:26.175Z,81.4
2015-11-18T07:08:57.446Z,83.2
2015-11-18T07:09:26.071Z,83.5
2015-11-18T07:10:26.011Z,83.6
2015-11-18T07:11:25.982Z,84.3
2015-11-18T07:12:25.898Z,85.1
2015-11-18T07:13:25.842Z,85.9
2015-11-18T07:14:25.771Z,85.9
2015-11-18T07:15:25.700Z,85.6
2015-11-18T07:16:25.643Z,84.8
2015-11-18T07:17:25.579Z,84.9
2015-11-18T07:18:25.514Z,84.9
2015-11-18T07:19:25.465Z,82.7
2015-11-18T07:20:25.402Z,83
2015-11-18T07:21:51.040Z,82.6
2015-11-18T07:22:25.292Z,82.7
2015-11-18T07:23:25.246Z,83.2
2015-11-18T07:24:25.185Z,82.9
2015-11-18T07:25:25.123Z,82.7
2015-11-18T07:26:25.079Z,82.7
2015-11-18T07:27:25.034Z,82.8
2015-11-18T07:28:24.973Z,82.1
2015-11-18T07:29:24.913Z,82.2
2015-11-18T07:30:25.087Z,82.9
2015-11-18T07:31:24.805Z,83.3
2015-11-18T07:32:24.777Z,83.1
2015-11-18T07:33:24.686Z,83.1
2015-11-18T07:34:24.641Z,83.4
2015-11-18T07:35:24.597Z,83.8
2015-11-18T07:36:24.537Z,83.6
2015-11-18T07:37:24.477Z,83.4
2015-11-18T07:38:24.433Z,83.1
2015-11-18T07:39:24.372Z,82.9
2015-11-18T07:40:24.328Z,82.3
2015-11-18T07:41:24.269Z,82
2015-11-18T07:42:24.224Z,82
2015-11-18T07:43:24.164Z,82.1
2015-11-18T07:44:24.105Z,82.1
2015-11-18T07:45:24.061Z,82.3
2015-11-18T07:46:24.236Z,81.9
2015-11-18T07:47:23.972Z,81.8
2015-11-18T07:48:23.897Z,80.9
2015-11-18T07:49:23.854Z,81.1
2015-11-18T07:50:23.794Z,81.1
2015-11-18T07:51:23.969Z,81.4
2015-11-18T07:52:23.690Z,81.8
2015-11-18T07:53:23.630Z,81.1
2015-11-18T07:54:23.586Z,80.4
2015-11-18T07:55:23.527Z,80.6
2015-11-18T07:56:23.466Z,81.1
2015-11-18T07:57:23.422Z,80.9
2015-11-18T07:58:23.378Z,80.4
2015-11-18T07:59:23.303Z,80
2015-11-18T08:00:23.493Z,80.4
2015-11-18T08:01:23.199Z,80.1
2015-11-18T08:02:23.156Z,80.5
2015-11-18T08:03:23.095Z,80.2
2015-11-18T08:04:23.036Z,80.3
2015-11-18T08:05:22.992Z,80.5
2015-11-18T08:06:22.947Z,80.1
2015-11-18T08:07:22.888Z,80.4
2015-11-18T08:08:22.685Z,80.3
2015-11-18T08:09:22.766Z,79.8
2015-11-18T08:10:22.721Z,79.6
2015-11-18T08:11:22.661Z,79.4
2015-11-18T08:12:22.616Z,79.2
2015-11-18T08:13:22.573Z,79.6
2015-11-18T08:14:22.514Z,79.4
2015-11-18T08:15:22.454Z,79.1
2015-11-18T08:16:22.410Z,79.4
2015-11-18T08:17:22.350Z,79.2
2015-11-18T08:18:22.150Z,78.7
2015-11-18T08:19:22.246Z,78.9
2015-11-18T08:20:22.186Z,79.2
2015-11-18T08:21:22.142Z,79.5
2015-11-18T08:22:22.082Z,78.4
2015-11-18T08:23:22.038Z,78.5
2015-11-18T08:24:21.979Z,78.5
2015-11-18T08:25:21.935Z,78.7
2015-11-18T08:26:21.874Z,78.4
2015-11-18T08:27:21.831Z,78.4
2015-11-18T08:28:21.770Z,78.9
2015-11-18T08:29:21.710Z,78.4
2015-11-18T08:30:21.651Z,78.7
2015-11-18T08:31:21.607Z,78.9
2015-11-18T08:32:21.547Z,79.3
2015-11-18T08:33:21.487Z,79.4
2015-11-18T08:34:21.444Z,79.6
2015-11-18T08:35:21.618Z,79.8
2015-11-18T08:36:21.340Z,79.7
2015-11-18T08:37:21.279Z,79.9
2015-11-18T08:38:21.235Z,80.4
2015-11-18T08:39:21.160Z,80.9
2015-11-18T08:40:21.351Z,81.1
2015-11-18T08:41:21.072Z,81.2
2015-11-18T08:42:21.029Z,81.8
2015-11-18T08:43:20.968Z,81.1
2015-11-18T08:44:20.909Z,81.4
2015-11-18T08:45:20.849Z,81.8
2015-11-18T08:46:20.804Z,80.7
2015-11-18T08:47:20.745Z,80.8
2015-11-18T08:48:20.701Z,80.1
2015-11-18T08:49:20.638Z,80.5
2015-11-18T08:50:20.579Z,80.8
2015-11-18T08:51:20.519Z,80.7
2015-11-18T08:52:20.474Z,80.3
2015-11-18T08:53:20.431Z,80.6
2015-11-18T08:54:20.370Z,80.3
2015-11-18T08:55:20.311Z,80.2
2015-11-18T08:56:20.267Z,80.5
2015-11-18T08:57:20.207Z,80.7
2015-11-18T08:58:20.162Z,80.7
2015-11-18T08:59:20.103Z,80.8
2015-11-18T09:00:20.043Z,81
2015-11-18T09:01:19.999Z,81.2
2015-11-18T09:02:19.940Z,81.5
2015-11-18T09:03:19.896Z,81
2015-11-18T09:04:19.851Z,81.4
2015-11-18T09:05:19.792Z,81.8
2015-11-18T09:06:19.732Z,81
2015-11-18T09:07:19.672Z,80.1
2015-11-18T09:08:19.628Z,79.9
2015-11-18T09:09:19.568Z,80.9
2015-11-18T09:10:19.508Z,80.6
2015-11-18T09:11:19.449Z,79.9
2015-11-18T09:12:19.404Z,80.6
2015-11-18T09:13:19.361Z,81.2
2015-11-18T09:14:19.301Z,83
2015-11-18T09:15:19.242Z,84
2015-11-18T09:16:19.198Z,84.2
2015-11-18T09:17:19.137Z,85.7
2015-11-18T09:18:19.312Z,86.4
2015-11-18T09:19:19.034Z,87.1
2015-11-18T09:20:18.974Z,86.3
2015-11-18T09:21:18.915Z,87
2015-11-18T09:22:18.871Z,87.1
2015-11-18T09:23:18.810Z,85.8
2015-11-18T09:24:18.782Z,86.9
2015-11-18T09:25:18.737Z,86.1
2015-11-18T09:26:18.662Z,85.5
2015-11-18T09:27:18.602Z,84.7
2015-11-18T09:28:18.539Z,84.3
2015-11-18T09:29:18.495Z,84.6
2015-11-18T09:30:18.436Z,83.6
2015-11-18T09:31:18.375Z,83.8
2015-11-18T09:32:18.332Z,81.7
2015-11-18T09:33:18.289Z,81.9
2015-11-18T09:34:18.228Z,82.4
2015-11-18T09:35:18.184Z,82.1
2015-11-18T09:36:18.124Z,82.6
2015-11-18T09:37:18.064Z,81.5
2015-11-18T09:38:18.020Z,81.2
2015-11-18T09:39:17.961Z,81.2
2015-11-18T09:40:17.916Z,80.8
2015-11-18T09:41:18.092Z,80.5
2015-11-18T09:42:18.031Z,81.2
2015-11-18T09:43:17.737Z,80.6
2015-11-18T09:44:17.693Z,80.2
2015-11-18T09:45:17.681Z,80.1
2015-11-18T09:46:17.590Z,80.1
2015-11-18T09:47:17.530Z,79.8
2015-11-18T09:48:17.485Z,79.8
2015-11-18T09:49:17.426Z,81
2015-11-18T09:50:17.367Z,80.7
2015-11-18T09:51:17.339Z,82.2
2015-11-18T09:52:17.262Z,83.2
2015-11-18T09:53:17.219Z,85
2015-11-18T09:54:17.158Z,85.7
2015-11-18T09:55:17.114Z,85.7
2015-11-18T09:56:17.039Z,84.7
2015-11-18T09:57:16.995Z,82.7
2015-11-18T09:58:16.950Z,82.2
2015-11-18T09:59:16.891Z,83
2015-11-18T10:00:16.847Z,82.9
2015-11-18T10:01:16.802Z,82.8
2015-11-18T10:02:16.728Z,84.1
2015-11-18T10:03:16.683Z,83.5
2015-11-18T10:04:16.639Z,83.7
2015-11-18T10:05:16.579Z,84
2015-11-18T10:06:16.519Z,85.7
2015-11-18T10:07:16.460Z,87.2
2015-11-18T10:08:16.400Z,88.4
2015-11-18T10:09:16.355Z,89.6
2015-11-18T10:10:16.296Z,89.4
2015-11-18T10:11:16.249Z,89.8
2015-11-18T10:12:16.205Z,89.9
2015-11-18T10:13:16.146Z,88.8
2015-11-18T10:14:16.086Z,89.3
2015-11-18T10:15:16.026Z,88.4
2015-11-18T10:16:15.982Z,88.5
2015-11-18T10:17:15.938Z,88.5
2015-11-18T10:18:15.877Z,88.2
2015-11-18T10:19:15.818Z,87.7
2015-11-18T10:20:15.758Z,87.4
2015-11-18T10:21:15.714Z,87.2
2015-11-18T10:22:15.670Z,85.7
2015-11-18T10:23:15.594Z,86.1
2015-11-18T10:24:15.566Z,86
2015-11-18T10:25:15.491Z,86.2
2015-11-18T10:26:15.447Z,85.1
2015-11-18T10:27:15.402Z,84.1
2015-11-18T10:28:15.327Z,84.4
2015-11-18T10:29:15.283Z,83.5
2015-11-18T10:30:15.224Z,84.1
2015-11-18T10:31:15.179Z,84.5
2015-11-18T10:32:15.135Z,84.3
2015-11-18T10:33:15.076Z,83.7
2015-11-18T10:34:15.015Z,84
2015-11-18T10:35:15.207Z,83.8
2015-11-18T10:36:14.912Z,84.1
2015-11-18T10:37:14.868Z,85
2015-11-18T10:38:14.807Z,85.7
2015-11-18T10:39:14.763Z,85.7
2015-11-18T10:40:14.705Z,85.7
2015-11-18T10:41:13.910Z,86
2015-11-18T10:42:14.601Z,86.2
2015-11-18T10:43:14.540Z,85.3
2015-11-18T10:44:14.496Z,85.7
2015-11-18T10:45:14.437Z,85.7
2015-11-18T10:46:14.377Z,85.8
2015-11-18T10:47:14.332Z,85.1
2015-11-18T10:48:14.273Z,85
2015-11-18T10:49:14.228Z,85.1
2015-11-18T10:50:14.169Z,85
2015-11-18T10:51:14.125Z,84.8
2015-11-18T10:52:14.065Z,85.3
2015-11-18T10:53:14.003Z,84.3
2015-11-18T10:54:13.959Z,84.6
2015-11-18T10:55:13.898Z,84.9
2015-11-18T10:56:13.855Z,85.2
2015-11-18T10:57:14.014Z,85.5
2015-11-18T10:58:13.734Z,86.7
2015-11-18T10:59:13.692Z,86.8
2015-11-18T11:00:12.897Z,86.9
2015-11-18T11:01:13.588Z,85.9
2015-11-18T11:02:13.528Z,86.1
2015-11-18T11:03:13.469Z,86.1
2015-11-18T11:04:13.424Z,86.2
2015-11-18T11:05:13.365Z,86.2
2015-11-18T11:06:13.305Z,86.4
2015-11-18T11:07:13.261Z,84.8
2015-11-18T11:08:13.232Z,85.5
2015-11-18T11:09:15.014Z,85.8
2015-11-18T11:10:15.087Z,85.7
2015-11-18T11:11:13.548Z,85.7
2015-11-18T11:12:13.206Z,85.5
2015-11-18T11:13:12.959Z,85.3
2015-11-18T11:14:13.086Z,85.3
2015-11-18T11:15:12.839Z,85.7
2015-11-18T11:16:12.826Z,85.5
2015-11-18T11:17:12.751Z,85.6
2015-11-18T11:18:12.676Z,85.4
2015-11-18T11:19:12.632Z,85
2015-11-18T11:20:12.572Z,84.8
2015-11-18T11:21:12.512Z,84.7
2015-11-18T11:22:12.467Z,85.3
2015-11-18T11:23:12.408Z,84.2
2015-11-18T11:24:12.363Z,83.8
2015-11-18T11:25:12.303Z,82.7
2015-11-18T11:26:12.260Z,83
2015-11-18T11:27:12.199Z,82.8
2015-11-18T11:28:12.141Z,83
2015-11-18T11:29:11.252Z,83
2015-11-18T11:30:12.036Z,82.5
2015-11-18T11:31:11.977Z,82.9
2015-11-18T11:32:11.932Z,82.5
2015-11-18T11:33:11.869Z,82.3
2015-11-18T11:34:11.841Z,81.6
2015-11-18T11:35:11.766Z,81.2
2015-11-18T11:36:11.722Z,81.1
2015-11-18T11:37:11.678Z,81.4
2015-11-18T11:38:11.618Z,81.1
2015-11-18T11:39:11.558Z,80
2015-11-18T11:40:11.514Z,80.2
2015-11-18T11:41:11.455Z,79.2
2015-11-18T11:42:11.394Z,78
2015-11-18T11:43:11.350Z,78.1
2015-11-18T11:44:11.291Z,78.2
2015-11-18T11:45:11.230Z,78.4
2015-11-18T11:46:11.202Z,78.6
2015-11-18T11:47:11.143Z,78.1
2015-11-18T11:48:11.083Z,78.4
2015-11-18T11:49:11.024Z,78.5
2015-11-18T11:50:10.979Z,78.9
2015-11-18T11:51:11.154Z,79.5
2015-11-18T11:52:10.875Z,77.6
2015-11-18T11:53:10.816Z,77.3
2015-11-18T11:54:10.755Z,76.4
2015-11-18T11:55:10.712Z,74.4
2015-11-18T11:56:10.652Z,72.8
2015-11-18T11:57:10.593Z,73.9
2015-11-18T11:58:10.548Z,73.9
2015-11-18T11:59:10.488Z,73.7
2015-11-18T12:00:10.444Z,74.6
2015-11-18T12:01:10.385Z,74.6
2015-11-18T12:02:10.340Z,74.9
2015-11-18T12:03:10.297Z,74.2
2015-11-18T12:04:10.237Z,75.1
2015-11-18T12:05:10.177Z,75.7
2015-11-18T12:06:10.132Z,75.3
2015-11-18T12:07:10.073Z,73.1
2015-11-18T12:08:10.029Z,72.1
2015-11-18T12:09:09.985Z,71.8
2015-11-18T12:10:09.909Z,71.7
2015-11-18T12:11:09.865Z,72.6
2015-11-18T12:12:09.802Z,71.9
2015-11-18T12:13:09.759Z,73.2
2015-11-18T12:14:09.715Z,73
2015-11-18T12:15:09.639Z,73.1
2015-11-18T12:16:09.596Z,73
2015-11-18T12:17:09.551Z,71.8
2015-11-18T12:18:09.490Z,70.9
2015-11-18T12:19:09.446Z,71.4
2015-11-18T12:20:09.403Z,71.3
2015-11-18T12:21:09.343Z,70.7
2015-11-18T12:22:09.284Z,68.3
2015-11-18T12:23:09.223Z,68.1
2015-11-18T12:24:09.180Z,68.5
2015-11-18T12:25:09.120Z,68.1
2015-11-18T12:26:09.060Z,68.2
2015-11-18T12:27:09.250Z,67.4
2015-11-18T12:28:08.956Z,65.6
2015-11-18T12:29:08.928Z,66.7
2015-11-18T12:30:08.868Z,65.1
2015-11-18T12:31:08.808Z,64.4
2015-11-18T12:32:08.765Z,62.9
2015-11-18T12:33:08.704Z,62.8
2015-11-18T12:34:08.645Z,63.5
2015-11-18T12:35:08.601Z,64.8
2015-11-18T12:36:08.557Z,65.4
2015-11-18T12:37:07.746Z,66.1
2015-11-18T12:38:08.453Z,65.8
2015-11-18T12:39:08.393Z,66.3
2015-11-18T12:40:08.348Z,66.7
2015-11-18T12:41:08.273Z,66.8
2015-11-18T12:42:08.229Z,66.1
2015-11-18T12:43:08.169Z,63.3
2015-11-18T12:44:08.126Z,63.4
2015-11-18T12:45:08.097Z,64.9
2015-11-18T12:46:08.021Z,65.1
2015-11-18T12:47:07.962Z,64.9
2015-11-18T12:48:07.918Z,65.7
2015-11-18T12:49:07.856Z,66.1
2015-11-18T12:50:07.795Z,67.2
2015-11-18T12:51:07.750Z,67.9
2015-11-18T12:52:07.706Z,67.5
2015-11-18T12:53:07.882Z,67
2015-11-18T12:54:07.603Z,67.7
2015-11-18T12:55:07.543Z,69.2
2015-11-18T12:56:07.483Z,69.5
2015-11-18T12:57:07.439Z,69.5
2015-11-18T12:58:07.396Z,68.2
2015-11-18T12:59:07.324Z,68.4
2015-11-18T13:00:07.268Z,68.4
2015-11-18T13:01:07.225Z,68.7
2015-11-18T13:02:07.165Z,69.4
2015-11-18T13:03:07.121Z,68.7
2015-11-18T13:04:07.077Z,69.3
2015-11-18T13:05:07.236Z,69.5
2015-11-18T13:06:06.974Z,71
2015-11-18T13:07:06.914Z,70.7
2015-11-18T13:08:06.869Z,70.4
2015-11-18T13:09:06.809Z,70
2015-11-18T13:10:06.749Z,70.5
2015-11-18T13:11:06.752Z,71
2015-11-18T13:12:06.646Z,71.3
2015-11-18T13:13:06.586Z,71.4
2015-11-18T13:14:06.527Z,71.3
2015-11-18T13:15:06.482Z,71
2015-11-18T13:16:05.688Z,71.7
2015-11-18T13:17:06.378Z,70.8
2015-11-18T13:18:06.334Z,71.3
2015-11-18T13:19:06.291Z,70
2015-11-18T13:20:06.215Z,70.2
2015-11-18T13:21:06.171Z,70.7
2015-11-18T13:22:06.112Z,70
2015-11-18T13:23:06.083Z,69.6